Time;durP1;ratioP1;P1;durP2;ratioP2;P2;SDS_P1;SDS_P2;PMS_P1;PMS_P2;Temp;Humidity;BMP_temperature;BMP_pressure;BME280_temperature;BME280_humidity;BME280_pressure;Samples;Min_cycle;Max_cycle;Signal;HPM_P1;HPM_P2
2021/06/16 00:02:26;;;;;;;8.23;7.38;;;28.40;59.30;;;;;;4954088;28;20046;-57
2021/06/16 00:05:13;;;;;;;9.55;7.28;;;28.40;59.40;;;;;;4953914;28;20114;-58
2021/06/16 00:07:58;;;;;;;7.60;6.75;;;28.40;59.60;;;;;;4953908;28;20058;-59
2021/06/16 00:10:44;;;;;;;8.90;7.05;;;28.30;59.20;;;;;;4953830;28;20103;-57
2021/06/16 00:13:28;;;;;;;9.32;7.60;;;28.30;59.30;;;;;;4953642;28;20160;-57
2021/06/16 00:16:13;;;;;;;8.05;6.93;;;28.40;59.30;;;;;;4953705;28;20046;-57
2021/06/16 00:18:57;;;;;;;9.18;6.82;;;28.30;59.10;;;;;;4953629;28;20050;-58
2021/06/16 00:21:42;;;;;;;11.00;6.60;;;28.30;59.10;;;;;;4953433;28;20047;-58
2021/06/16 00:24:27;;;;;;;8.98;7.18;;;28.30;58.90;;;;;;4953480;28;20043;-58
2021/06/16 00:27:12;;;;;;;7.13;5.70;;;28.30;58.80;;;;;;4953414;28;20053;-60
2021/06/16 00:29:57;;;;;;;6.78;5.40;;;28.30;58.60;;;;;;4953017;28;20110;-59
2021/06/16 00:32:43;;;;;;;7.45;5.57;;;28.40;58.50;;;;;;4953585;29;20129;-59
2021/06/16 00:35:28;;;;;;;12.10;6.35;;;28.40;58.50;;;;;;4953508;28;20526;-58
2021/06/16 00:37:56;;;;;;;9.25;5.65;;;28.40;58.30;;;;;;4953048;28;20399;-58
2021/06/16 00:40:25;;;;;;;7.72;5.68;;;28.40;58.20;;;;;;4936252;28;20035;-57
2021/06/16 00:43:09;;;;;;;7.63;6.22;;;28.50;58.30;;;;;;4953234;28;20098;-58
2021/06/16 00:45:35;;;;;;;8.32;6.32;;;28.50;58.20;;;;;;4953419;29;20063;-60
2021/06/16 00:48:02;;;;;;;13.00;6.60;;;28.50;58.10;;;;;;4953280;28;20042;-59
2021/06/16 00:50:29;;;;;;;9.13;6.35;;;28.60;58.10;;;;;;4936012;29;20189;-59
2021/06/16 00:52:55;;;;;;;7.30;6.05;;;28.50;57.70;;;;;;4920124;29;20031;-56
2021/06/16 00:55:40;;;;;;;6.22;5.43;;;28.50;57.60;;;;;;4953041;28;20463;-57
2021/06/16 00:58:13;;;;;;;10.48;6.25;;;28.60;57.60;;;;;;4953185;28;20055;-61
2021/06/16 01:01:03;;;;;;;8.07;5.88;;;28.60;57.40;;;;;;4952799;28;20511;-62
2021/06/16 01:03:42;;;;;;;7.18;6.43;;;28.50;57.30;;;;;;4935354;28;20047;-57
2021/06/16 01:06:36;;;;;;;7.57;5.80;;;28.50;57.10;;;;;;4952548;28;20090;-67
2021/06/16 01:09:25;;;;;;;7.07;5.88;;;28.50;57.20;;;;;;4952541;28;20117;-57
2021/06/16 01:12:12;;;;;;;7.35;5.50;;;28.50;57.20;;;;;;4952510;28;20046;-58
2021/06/16 01:15:07;;;;;;;5.57;4.93;;;28.50;57.10;;;;;;4938341;28;20089;-57
2021/06/16 01:17:53;;;;;;;6.00;5.30;;;28.50;57.00;;;;;;4935389;29;20460;-57
2021/06/16 01:20:40;;;;;;;6.50;5.88;;;28.50;57.00;;;;;;4952413;28;20043;-58
2021/06/16 01:23:09;;;;;;;8.02;5.38;;;28.50;56.80;;;;;;4935423;29;20066;-57
2021/06/16 01:26:03;;;;;;;5.95;4.75;;;28.50;56.80;;;;;;4919997;29;20442;-58
2021/06/16 01:28:42;;;;;;;6.03;4.82;;;28.50;56.70;;;;;;4952612;29;20047;-57
2021/06/16 01:31:12;;;;;;;6.80;4.95;;;28.50;56.70;;;;;;4952921;28;20488;-57
2021/06/16 01:33:39;;;;;;;6.63;4.65;;;28.50;56.70;;;;;;4952885;28;20396;-57
2021/06/16 01:36:06;;;;;;;6.88;5.03;;;28.60;56.60;;;;;;4952198;28;20044;-57
2021/06/16 01:38:33;;;;;;;5.00;4.55;;;28.60;56.60;;;;;;4934684;29;20032;-57
2021/06/16 01:41:01;;;;;;;8.40;5.43;;;28.60;56.50;;;;;;4952609;28;20051;-58
2021/06/16 01:43:28;;;;;;;5.55;4.88;;;28.60;56.40;;;;;;4952499;28;20031;-57
2021/06/16 01:45:57;;;;;;;5.88;5.00;;;28.70;56.30;;;;;;4935362;29;20055;-57
2021/06/16 01:48:23;;;;;;;6.82;4.90;;;28.70;56.20;;;;;;4952442;28;20039;-58
2021/06/16 01:50:52;;;;;;;7.50;5.85;;;28.70;56.20;;;;;;4935296;29;20043;-57
2021/06/16 01:53:19;;;;;;;8.38;6.05;;;28.70;56.10;;;;;;4935094;29;20035;-57
2021/06/16 01:55:48;;;;;;;5.93;5.32;;;28.70;55.70;;;;;;4943685;28;20105;-59
2021/06/16 01:58:16;;;;;;;5.80;4.70;;;28.70;55.70;;;;;;4942817;29;20043;-60
2021/06/16 02:00:43;;;;;;;7.25;6.18;;;28.80;55.70;;;;;;4946340;28;20050;-58
2021/06/16 02:03:09;;;;;;;6.15;5.55;;;28.80;55.60;;;;;;4941760;28;20042;-57
2021/06/16 02:05:36;;;;;;;9.18;5.18;;;28.80;55.60;;;;;;4954944;28;20052;-58
2021/06/16 02:08:04;;;;;;;5.53;4.75;;;28.80;55.60;;;;;;4942734;28;20618;-59
2021/06/16 02:10:35;;;;;;;5.43;4.93;;;28.80;55.50;;;;;;4942723;29;20624;-57
2021/06/16 02:13:04;;;;;;;9.82;6.05;;;28.80;55.40;;;;;;4942471;28;20153;-57
2021/06/16 02:15:50;;;;;;;6.00;5.18;;;28.80;55.10;;;;;;4933402;29;20118;-57
2021/06/16 02:18:18;;;;;;;7.57;5.20;;;28.90;55.10;;;;;;4950846;29;20062;-58
2021/06/16 02:20:44;;;;;;;5.57;4.97;;;28.90;55.10;;;;;;4952184;29;20027;-59
2021/06/16 02:23:12;;;;;;;8.43;5.97;;;28.90;55.10;;;;;;4952500;29;20533;-58
2021/06/16 02:25:38;;;;;;;8.60;5.55;;;28.90;54.90;;;;;;4952364;28;20051;-58
2021/06/16 02:28:04;;;;;;;6.80;6.05;;;28.90;54.90;;;;;;4934572;29;20372;-58
2021/06/16 02:30:30;;;;;;;8.95;5.68;;;28.90;54.70;;;;;;4951975;29;20369;-57
2021/06/16 02:32:56;;;;;;;7.47;5.95;;;28.90;54.50;;;;;;4952081;28;20051;-57
2021/06/16 02:35:22;;;;;;;13.38;8.07;;;28.90;54.50;;;;;;4951946;29;20039;-57
2021/06/16 02:37:53;;;;;;;7.82;5.50;;;28.90;53.80;;;;;;4952162;28;20130;-57
2021/06/16 02:40:20;;;;;;;8.15;6.20;;;28.90;54.00;;;;;;4951710;28;20554;-57
2021/06/16 02:42:49;;;;;;;8.20;5.95;;;28.90;54.00;;;;;;4952054;28;20501;-58
2021/06/16 02:45:18;;;;;;;10.50;5.85;;;28.90;53.90;;;;;;4951643;29;20047;-58
2021/06/16 02:47:48;;;;;;;6.00;5.40;;;28.80;53.70;;;;;;4951936;28;20036;-59
2021/06/16 02:50:19;;;;;;;7.35;6.22;;;28.90;53.70;;;;;;4938328;29;20360;-62
2021/06/16 02:52:47;;;;;;;8.40;5.88;;;28.80;53.00;;;;;;4955172;29;20082;-59
2021/06/16 02:55:14;;;;;;;9.20;6.18;;;28.80;53.20;;;;;;4955837;29;20488;-57
2021/06/16 02:57:44;;;;;;;8.07;5.95;;;28.80;53.00;;;;;;4955404;28;20395;-58
2021/06/16 03:00:12;;;;;;;7.88;5.78;;;28.80;53.10;;;;;;4969847;28;20046;-57
2021/06/16 03:02:42;;;;;;;6.00;5.45;;;28.80;53.20;;;;;;4955296;28;20094;-58
2021/06/16 03:05:10;;;;;;;9.13;5.78;;;28.80;52.90;;;;;;4954711;29;20043;-58
2021/06/16 03:07:37;;;;;;;8.18;5.10;;;28.80;52.70;;;;;;4954987;29;20122;-57
2021/06/16 03:10:05;;;;;;;9.27;5.38;;;28.80;52.60;;;;;;4955042;28;20067;-57
2021/06/16 03:12:33;;;;;;;6.45;4.65;;;28.80;52.60;;;;;;4937590;29;20480;-57
2021/06/16 03:15:00;;;;;;;6.07;5.07;;;28.80;51.90;;;;;;4954796;28;20082;-57
2021/06/16 03:17:27;;;;;;;5.45;4.65;;;28.80;52.20;;;;;;4954763;28;20392;-57
2021/06/16 03:19:56;;;;;;;8.85;5.65;;;28.80;52.20;;;;;;4954897;29;20118;-61
2021/06/16 03:22:25;;;;;;;4.85;4.25;;;28.70;52.00;;;;;;4954474;28;20389;-57
2021/06/16 03:24:51;;;;;;;8.95;5.18;;;28.70;52.00;;;;;;4954764;28;20050;-57
2021/06/16 03:27:21;;;;;;;8.88;4.50;;;28.70;51.70;;;;;;4954307;28;20366;-57
2021/06/16 03:29:50;;;;;;;4.65;4.22;;;28.70;50.60;;;;;;4954803;28;20396;-58
2021/06/16 03:32:17;;;;;;;4.60;3.67;;;28.70;51.00;;;;;;4954557;29;20047;-66
2021/06/16 03:34:43;;;;;;;4.25;3.85;;;28.70;51.10;;;;;;4954650;28;20035;-58
2021/06/16 03:37:11;;;;;;;4.15;3.70;;;28.70;49.70;;;;;;4954667;28;20031;-57
2021/06/16 03:39:38;;;;;;;6.75;4.22;;;28.70;50.00;;;;;;4954400;28;20039;-60
2021/06/16 03:42:04;;;;;;;5.15;4.05;;;28.60;49.80;;;;;;4936891;29;20078;-58
2021/06/16 03:44:31;;;;;;;3.90;3.58;;;28.60;49.80;;;;;;4954436;28;20049;-57
2021/06/16 03:46:58;;;;;;;5.13;4.20;;;28.60;49.70;;;;;;4954349;28;20047;-57
2021/06/16 03:49:27;;;;;;;3.85;3.35;;;28.60;49.40;;;;;;4954040;28;20036;-58
2021/06/16 03:51:55;;;;;;;6.60;3.78;;;28.60;49.60;;;;;;4954305;28;20074;-57
2021/06/16 03:54:21;;;;;;;4.82;3.53;;;28.60;49.50;;;;;;4954045;28;20035;-57
2021/06/16 03:56:48;;;;;;;5.32;3.83;;;28.60;49.50;;;;;;4954475;28;20031;-67
2021/06/16 03:59:15;;;;;;;6.28;3.70;;;28.50;49.40;;;;;;4954254;28;20042;-57
2021/06/16 04:01:43;;;;;;;4.63;4.22;;;28.50;49.40;;;;;;4953457;28;20086;-57
2021/06/16 04:04:11;;;;;;;3.90;3.58;;;28.60;49.40;;;;;;4953921;28;20504;-58
2021/06/16 04:06:41;;;;;;;5.00;3.35;;;28.50;49.10;;;;;;4936902;29;20047;-58
2021/06/16 04:09:08;;;;;;;;;;;28.60;48.70;;;;;;4954068;28;20837;-58
2021/06/16 04:11:36;;;;;;;5.13;3.65;;;28.50;49.70;;;;;;4953912;28;19906;-60
2021/06/16 04:14:02;;;;;;;4.30;3.90;;;28.70;48.80;;;;;;4936641;29;20035;-58
2021/06/16 04:16:29;;;;;;;5.35;3.60;;;28.60;48.50;;;;;;4936635;29;20079;-60
2021/06/16 04:18:55;;;;;;;5.35;3.90;;;28.60;48.40;;;;;;4953512;29;20579;-58
2021/06/16 04:21:22;;;;;;;5.20;3.67;;;28.60;48.40;;;;;;4936503;29;20042;-57
2021/06/16 04:23:49;;;;;;;4.68;3.35;;;28.60;48.30;;;;;;4953483;28;20058;-58
2021/06/16 04:26:16;;;;;;;4.38;3.88;;;28.60;47.80;;;;;;4953857;28;20507;-58
2021/06/16 04:28:42;;;;;;;4.28;3.47;;;28.60;47.60;;;;;;4953041;28;20521;-61
2021/06/16 04:31:09;;;;;;;5.00;3.53;;;28.50;47.60;;;;;;4953087;28;20322;-57
2021/06/16 04:33:35;;;;;;;5.00;4.10;;;28.50;46.80;;;;;;4952513;28;20178;-58
2021/06/16 04:36:02;;;;;;;4.07;3.22;;;28.50;47.10;;;;;;4952918;28;20035;-62
2021/06/16 04:38:29;;;;;;;5.30;4.38;;;28.60;47.30;;;;;;4953080;28;20563;-57
2021/06/16 04:40:54;;;;;;;4.57;3.50;;;28.60;46.90;;;;;;4953083;28;20480;-60
2021/06/16 04:43:21;;;;;;;3.90;3.15;;;28.60;47.10;;;;;;4936395;29;20065;-65
2021/06/16 04:45:47;;;;;;;4.63;3.78;;;28.50;47.00;;;;;;4952833;29;20131;-57
2021/06/16 04:48:13;;;;;;;6.55;3.53;;;28.50;46.40;;;;;;4953152;29;20066;-57
2021/06/16 04:50:39;;;;;;;4.63;3.65;;;28.50;46.30;;;;;;4953194;28;20070;-57
2021/06/16 04:53:05;;;;;;;7.43;3.78;;;28.50;46.60;;;;;;4951755;28;20043;-57
2021/06/16 04:55:31;;;;;;;5.60;3.30;;;28.50;46.70;;;;;;4952544;28;20122;-58
2021/06/16 04:57:57;;;;;;;4.30;3.65;;;28.50;46.70;;;;;;4935675;29;20043;-62
2021/06/16 05:00:23;;;;;;;4.88;3.13;;;28.50;46.40;;;;;;4952505;29;20031;-57
2021/06/16 05:02:54;;;;;;;7.45;3.28;;;28.50;46.50;;;;;;4935765;29;20485;-57
2021/06/16 05:05:20;;;;;;;5.28;3.33;;;28.50;45.90;;;;;;4952758;28;20055;-65
2021/06/16 05:07:46;;;;;;;4.88;3.53;;;28.50;45.40;;;;;;4952003;28;20488;-58
2021/06/16 05:10:12;;;;;;;3.42;3.13;;;28.50;46.00;;;;;;4935048;29;20047;-57
2021/06/16 05:12:38;;;;;;;3.88;2.83;;;28.40;46.30;;;;;;4952255;28;20105;-59
2021/06/16 05:15:06;;;;;;;5.18;3.65;;;28.50;46.30;;;;;;4952966;28;20043;-58
2021/06/16 05:17:32;;;;;;;5.63;3.58;;;28.50;46.30;;;;;;4912722;29;20036;-58
2021/06/16 05:19:58;;;;;;;5.57;3.72;;;28.40;46.20;;;;;;4947200;28;20101;-58
2021/06/16 05:22:26;;;;;;;4.47;3.40;;;28.40;45.80;;;;;;4952477;28;20440;-58
2021/06/16 05:24:53;;;;;;;4.05;3.67;;;28.50;45.90;;;;;;4952899;28;20038;-68
2021/06/16 05:27:19;;;;;;;6.78;3.40;;;28.50;46.10;;;;;;4952402;28;20051;-58
2021/06/16 05:29:45;;;;;;;3.83;3.22;;;28.50;46.20;;;;;;4934431;29;20046;-65
2021/06/16 05:32:12;;;;;;;2.95;2.70;;;28.40;46.10;;;;;;4949718;28;20038;-58
2021/06/16 05:34:39;;;;;;;6.10;3.70;;;28.40;46.40;;;;;;4947373;28;20547;-58
2021/06/16 05:37:08;;;;;;;6.68;3.53;;;28.40;45.80;;;;;;4935127;29;20035;-58
2021/06/16 05:39:35;;;;;;;3.73;3.07;;;28.40;45.50;;;;;;4935211;29;20035;-60
2021/06/16 05:42:02;;;;;;;5.70;3.72;;;28.40;45.50;;;;;;4935164;29;20341;-58
2021/06/16 05:44:28;;;;;;;12.13;5.65;;;28.40;45.80;;;;;;4952574;29;20107;-59
2021/06/16 05:46:54;;;;;;;12.30;6.45;;;28.40;45.30;;;;;;4934485;29;20130;-63
2021/06/16 05:49:20;;;;;;;8.85;5.35;;;28.40;45.30;;;;;;4952593;28;20067;-57
2021/06/16 05:51:46;;;;;;;10.85;5.18;;;28.40;45.70;;;;;;4951937;29;20078;-58
2021/06/16 05:54:12;;;;;;;6.60;4.40;;;28.40;45.30;;;;;;4950562;28;20038;-59
2021/06/16 05:56:39;;;;;;;9.15;4.13;;;28.30;45.30;;;;;;4951804;28;20110;-68
2021/06/16 05:59:05;;;;;;;8.35;4.05;;;28.30;45.60;;;;;;4951659;28;20515;-58
2021/06/16 06:01:32;;;;;;;12.60;3.80;;;28.30;44.80;;;;;;4949978;28;20039;-59
2021/06/16 06:03:58;;;;;;;6.65;4.25;;;28.30;45.00;;;;;;4948892;28;20130;-58
2021/06/16 06:06:25;;;;;;;8.15;3.60;;;28.30;45.10;;;;;;4942896;28;20047;-65
2021/06/16 06:08:51;;;;;;;5.90;3.83;;;28.20;45.30;;;;;;4948613;28;20461;-61
2021/06/16 06:11:17;;;;;;;6.53;3.50;;;28.30;45.20;;;;;;4949892;28;20110;-59
2021/06/16 06:13:43;;;;;;;11.23;4.45;;;28.30;45.30;;;;;;4916825;28;20031;-58
2021/06/16 06:16:10;;;;;;;6.85;4.07;;;28.30;45.10;;;;;;4947099;28;20129;-65
2021/06/16 06:18:37;;;;;;;12.45;4.50;;;28.30;45.10;;;;;;4934441;28;20065;-60
2021/06/16 06:21:03;;;;;;;8.27;3.70;;;28.30;44.90;;;;;;4948793;28;20031;-57
2021/06/16 06:23:29;;;;;;;10.07;3.95;;;28.30;45.00;;;;;;4952097;28;20055;-58
2021/06/16 06:25:55;;;;;;;7.53;4.78;;;28.20;44.80;;;;;;4938281;29;20077;-68
2021/06/16 06:28:22;;;;;;;6.78;3.80;;;28.20;45.00;;;;;;4950581;28;20543;-58
2021/06/16 06:30:48;;;;;;;8.13;4.03;;;28.20;44.80;;;;;;4945718;29;20031;-58
2021/06/16 06:33:14;;;;;;;10.88;4.32;;;28.20;44.80;;;;;;4953534;28;20102;-60
2021/06/16 06:35:40;;;;;;;6.28;3.80;;;28.20;44.90;;;;;;4954050;29;20455;-60
2021/06/16 06:38:07;;;;;;;8.75;3.53;;;28.20;45.10;;;;;;4954791;29;20090;-59
2021/06/16 06:40:33;;;;;;;9.85;3.28;;;28.20;44.80;;;;;;4955178;28;20042;-57
2021/06/16 06:43:00;;;;;;;8.13;3.88;;;28.20;44.70;;;;;;4955277;28;20184;-58
2021/06/16 06:45:26;;;;;;;13.40;4.25;;;28.20;44.50;;;;;;4956046;28;20043;-58
2021/06/16 06:47:52;;;;;;;5.15;3.25;;;28.30;44.60;;;;;;4955985;29;20071;-58
2021/06/16 06:50:18;;;;;;;10.15;4.22;;;28.30;44.60;;;;;;4955618;28;20085;-59
2021/06/16 06:52:47;;;;;;;7.93;3.70;;;28.30;45.30;;;;;;4955332;28;20040;-57
2021/06/16 06:55:13;;;;;;;5.10;3.00;;;28.30;44.40;;;;;;4955474;29;20039;-58
2021/06/16 06:57:39;;;;;;;4.57;3.08;;;28.30;44.60;;;;;;4955402;28;20035;-58
2021/06/16 07:00:07;;;;;;;7.15;3.83;;;28.30;44.50;;;;;;4955563;28;20035;-57
2021/06/16 07:02:33;;;;;;;6.10;3.38;;;28.40;44.60;;;;;;4955132;28;20043;-57
2021/06/16 07:04:59;;;;;;;6.38;3.47;;;28.40;44.60;;;;;;4955195;29;20092;-57
2021/06/16 07:07:25;;;;;;;7.97;4.15;;;28.40;44.80;;;;;;4955599;29;20065;-56
2021/06/16 07:09:51;;;;;;;14.77;4.22;;;28.40;44.60;;;;;;4955068;28;20040;-56
2021/06/16 07:12:18;;;;;;;7.15;3.42;;;28.40;44.60;;;;;;4954967;28;20456;-56
2021/06/16 07:14:45;;;;;;;5.53;3.00;;;28.40;44.50;;;;;;4937656;29;20042;-56
2021/06/16 07:17:11;;;;;;;5.95;3.55;;;28.50;44.60;;;;;;4954811;28;20493;-56
2021/06/16 07:19:37;;;;;;;5.85;3.38;;;28.50;44.60;;;;;;4955106;28;20031;-61
2021/06/16 07:22:04;;;;;;;4.70;3.42;;;28.50;44.40;;;;;;4954633;28;20047;-56
2021/06/16 07:24:31;;;;;;;7.28;4.00;;;28.50;45.10;;;;;;4954559;28;20050;-58
2021/06/16 07:26:57;;;;;;;7.35;3.20;;;28.50;44.40;;;;;;4954761;28;20103;-56
2021/06/16 07:29:23;;;;;;;10.98;3.80;;;28.50;44.50;;;;;;4937654;29;20047;-58
2021/06/16 07:31:50;;;;;;;4.88;3.63;;;28.50;44.40;;;;;;4918043;29;20727;-57
2021/06/16 07:34:16;;;;;;;6.68;3.72;;;28.60;44.60;;;;;;4935025;29;20040;-56
2021/06/16 07:36:42;;;;;;;8.45;4.18;;;28.50;44.50;;;;;;4934200;29;20172;-57
2021/06/16 07:39:08;;;;;;;7.95;3.40;;;28.50;44.40;;;;;;4935465;29;20082;-58
2021/06/16 07:41:35;;;;;;;8.80;3.92;;;28.60;44.60;;;;;;4934941;29;20441;-56
2021/06/16 07:44:01;;;;;;;7.38;4.00;;;28.60;44.60;;;;;;4935050;29;20044;-59
2021/06/16 07:46:27;;;;;;;5.68;3.60;;;28.60;44.70;;;;;;4918495;29;20043;-58
2021/06/16 07:48:53;;;;;;;8.10;3.40;;;28.60;44.80;;;;;;4934957;29;20501;-57
2021/06/16 07:51:20;;;;;;;7.82;3.50;;;28.70;44.80;;;;;;4935071;29;20040;-58
2021/06/16 07:53:47;;;;;;;8.85;3.70;;;28.70;44.80;;;;;;4935000;29;20457;-57
2021/06/16 07:56:13;;;;;;;4.97;3.53;;;28.70;44.80;;;;;;4935044;29;20064;-59
2021/06/16 07:58:58;;;;;;;5.40;3.53;;;28.70;44.90;;;;;;4935496;29;20074;-56
2021/06/16 08:01:24;;;;;;;9.63;3.40;;;28.80;45.00;;;;;;4935443;29;20388;-58
2021/06/16 08:03:50;;;;;;;5.90;3.97;;;28.80;45.00;;;;;;4935126;29;20076;-57
2021/06/16 08:06:16;;;;;;;7.07;3.60;;;28.80;44.90;;;;;;4935025;29;20360;-62
2021/06/16 08:08:42;;;;;;;5.30;3.97;;;28.90;45.10;;;;;;4935210;29;20047;-56
2021/06/16 08:11:08;;;;;;;7.90;4.40;;;28.90;45.20;;;;;;4935247;29;20047;-55
2021/06/16 08:13:34;;;;;;;5.93;4.88;;;28.90;45.00;;;;;;4934875;29;20035;-55
2021/06/16 08:16:00;;;;;;;7.70;5.95;;;28.90;45.10;;;;;;4935113;29;20055;-56
2021/06/16 08:18:26;;;;;;;7.95;6.15;;;28.90;45.10;;;;;;4935095;29;20131;-56
2021/06/16 08:20:52;;;;;;;23.67;21.20;;;29.00;45.20;;;;;;4934974;29;20046;-56
2021/06/16 08:23:18;;;;;;;26.70;23.85;;;29.00;45.20;;;;;;4934712;29;20126;-56
2021/06/16 08:25:44;;;;;;;27.50;24.58;;;29.00;45.20;;;;;;4948505;28;20481;-56
2021/06/16 08:28:10;;;;;;;30.50;25.90;;;29.00;45.20;;;;;;4953687;28;20199;-56
2021/06/16 08:30:36;;;;;;;24.90;22.35;;;29.00;45.20;;;;;;4936814;29;20122;-56
2021/06/16 08:33:02;;;;;;;25.45;22.67;;;29.00;45.20;;;;;;4932988;29;20036;-56
2021/06/16 08:35:47;;;;;;;27.83;24.92;;;29.00;45.20;;;;;;4920013;29;20047;-53
2021/06/16 08:38:13;;;;;;;26.77;24.02;;;29.10;45.30;;;;;;4934347;29;20040;-54
2021/06/16 08:40:39;;;;;;;28.52;25.58;;;29.10;45.30;;;;;;4934656;29;20204;-54
2021/06/16 08:43:05;;;;;;;29.20;26.30;;;29.10;45.30;;;;;;4934344;29;20068;-54
2021/06/16 08:45:37;;;;;;;29.92;26.63;;;29.10;45.20;;;;;;4934643;29;20040;-54
2021/06/16 08:48:21;;;;;;;36.88;33.25;;;29.10;45.20;;;;;;4934546;29;20115;-54
2021/06/16 08:50:47;;;;;;;33.40;30.10;;;29.10;45.20;;;;;;4917530;29;20044;-54
2021/06/16 08:53:13;;;;;;;33.78;30.55;;;29.20;45.30;;;;;;4934476;29;20036;-54
2021/06/16 08:55:39;;;;;;;34.88;31.52;;;29.20;45.20;;;;;;4934380;29;20044;-54
2021/06/16 08:58:05;;;;;;;33.28;29.77;;;29.20;45.30;;;;;;4934320;29;20532;-54
2021/06/16 09:00:31;;;;;;;32.95;29.77;;;29.20;45.30;;;;;;4934661;29;20040;-54
2021/06/16 09:02:57;;;;;;;31.95;28.23;;;29.20;45.30;;;;;;4934330;29;20038;-54
2021/06/16 09:05:36;;;;;;;31.15;28.15;;;29.20;45.30;;;;;;4934444;29;20067;-54
2021/06/16 09:08:20;;;;;;;28.63;25.85;;;29.20;45.30;;;;;;4934484;29;20044;-54
2021/06/16 09:11:05;;;;;;;29.80;26.83;;;29.20;45.30;;;;;;4934077;29;20046;-55
2021/06/16 09:13:51;;;;;;;27.13;24.50;;;29.30;45.40;;;;;;4919584;29;20066;-55
2021/06/16 09:16:36;;;;;;;27.88;25.02;;;29.30;45.50;;;;;;4934000;29;20054;-54
2021/06/16 09:19:23;;;;;;;27.52;24.88;;;29.30;45.40;;;;;;4934042;29;20054;-53
2021/06/16 09:22:08;;;;;;;26.65;23.95;;;29.30;45.40;;;;;;4934012;29;20098;-53
2021/06/16 09:24:54;;;;;;;27.15;24.33;;;29.30;45.40;;;;;;4933922;29;20078;-54
2021/06/16 09:27:50;;;;;;;26.13;23.52;;;29.40;45.50;;;;;;4933629;29;20057;-54
2021/06/16 09:30:42;;;;;;;25.92;23.48;;;29.30;45.40;;;;;;4933924;29;20111;-59
2021/06/16 09:33:27;;;;;;;26.33;23.88;;;29.40;45.50;;;;;;4919224;29;20076;-55
2021/06/16 09:36:20;;;;;;;24.85;22.55;;;29.40;45.50;;;;;;4933814;29;20050;-54
2021/06/16 09:39:09;;;;;;;25.02;22.58;;;29.40;45.50;;;;;;4934058;29;20175;-55
2021/06/16 09:42:02;;;;;;;24.45;22.08;;;29.40;45.50;;;;;;4933866;29;20458;-54
2021/06/16 09:44:50;;;;;;;24.63;22.23;;;29.50;45.50;;;;;;4933757;29;20445;-56
2021/06/16 09:47:37;;;;;;;24.35;22.10;;;29.50;45.50;;;;;;4933638;29;20062;-55
2021/06/16 09:50:26;;;;;;;22.45;20.38;;;29.50;45.50;;;;;;4933828;29;20046;-53
2021/06/16 09:53:11;;;;;;;23.48;21.38;;;29.50;45.50;;;;;;4933676;29;20072;-54
2021/06/16 09:56:14;;;;;;;22.30;20.30;;;29.60;45.60;;;;;;4933604;29;20047;-54
2021/06/16 09:59:00;;;;;;;22.65;20.55;;;29.60;45.60;;;;;;4935391;29;20218;-54
2021/06/16 10:01:52;;;;;;;21.65;19.67;;;29.60;45.50;;;;;;4937627;29;20087;-54
2021/06/16 10:04:49;;;;;;;22.08;20.17;;;29.60;45.50;;;;;;4923357;29;20519;-53
2021/06/16 10:07:34;;;;;;;22.08;20.08;;;29.70;45.50;;;;;;4937851;29;20150;-53
2021/06/16 10:10:18;;;;;;;21.58;19.30;;;29.70;45.60;;;;;;4937660;29;20038;-54
2021/06/16 10:13:03;;;;;;;22.55;19.15;;;29.70;45.60;;;;;;4937608;29;20130;-54
2021/06/16 10:15:47;;;;;;;21.15;19.15;;;29.70;45.50;;;;;;4937293;29;20076;-54
2021/06/16 10:18:34;;;;;;;20.73;18.75;;;29.80;45.60;;;;;;4937303;29;20062;-54
2021/06/16 10:21:21;;;;;;;19.48;17.67;;;29.80;45.60;;;;;;4937359;29;20111;-55
2021/06/16 10:24:06;;;;;;;19.27;17.48;;;29.80;45.60;;;;;;4937423;29;20059;-54
2021/06/16 10:26:55;;;;;;;20.60;18.85;;;29.80;45.50;;;;;;4936850;29;20055;-55
2021/06/16 10:29:43;;;;;;;20.07;18.20;;;29.80;45.50;;;;;;4937170;29;20117;-55
2021/06/16 10:32:11;;;;;;;19.75;17.95;;;29.80;45.50;;;;;;4937411;29;20044;-56
2021/06/16 10:34:57;;;;;;;19.10;17.40;;;29.80;45.40;;;;;;4937281;29;20039;-54
2021/06/16 10:37:29;;;;;;;19.25;17.55;;;29.90;45.50;;;;;;4936791;29;20102;-55
2021/06/16 10:40:24;;;;;;;18.98;17.15;;;29.90;45.40;;;;;;4936650;29;20044;-55
2021/06/16 10:43:02;;;;;;;19.80;17.85;;;29.90;45.50;;;;;;4931304;29;20059;-54
2021/06/16 10:45:29;;;;;;;17.92;16.25;;;29.90;45.40;;;;;;4936816;29;20091;-55
2021/06/16 10:48:00;;;;;;;19.27;17.58;;;30.00;45.50;;;;;;4936938;29;20496;-55
2021/06/16 10:50:48;;;;;;;18.58;16.73;;;30.00;46.00;;;;;;4919932;29;20526;-55
2021/06/16 10:53:15;;;;;;;19.20;17.45;;;30.00;45.50;;;;;;4937003;29;20074;-55
2021/06/16 10:55:54;;;;;;;18.50;16.80;;;30.00;45.40;;;;;;4936958;29;20035;-56
2021/06/16 10:58:25;;;;;;;16.75;15.35;;;30.10;45.50;;;;;;4936450;29;20047;-52
2021/06/16 11:01:15;;;;;;;17.33;15.90;;;30.00;45.40;;;;;;4936605;29;20442;-53
2021/06/16 11:03:52;;;;;;;16.75;15.25;;;30.10;45.50;;;;;;4936452;29;20059;-56
2021/06/16 11:06:33;;;;;;;17.75;16.23;;;30.00;45.30;;;;;;4936634;29;20103;-53
2021/06/16 11:09:15;;;;;;;17.25;15.65;;;30.10;45.40;;;;;;4936027;29;20448;-53
2021/06/16 11:11:50;;;;;;;17.50;15.82;;;30.10;45.40;;;;;;4936509;29;20039;-55
2021/06/16 11:14:34;;;;;;;17.52;15.75;;;30.10;45.40;;;;;;4936311;29;20087;-53
2021/06/16 11:17:07;;;;;;;17.10;15.43;;;30.10;45.40;;;;;;4936167;29;20047;-53
2021/06/16 11:19:36;;;;;;;16.42;14.95;;;30.10;45.40;;;;;;4935892;29;20119;-54
2021/06/16 11:22:25;;;;;;;17.52;16.08;;;30.20;45.40;;;;;;4936181;29;20252;-54
2021/06/16 11:25:06;;;;;;;17.23;15.43;;;30.20;45.40;;;;;;4910060;29;20040;-54
2021/06/16 11:27:50;;;;;;;16.50;15.00;;;30.20;45.40;;;;;;4936027;29;20146;-53
2021/06/16 11:30:35;;;;;;;16.73;15.13;;;30.20;45.40;;;;;;4935847;29;20040;-54
2021/06/16 11:33:13;;;;;;;16.48;14.88;;;30.20;45.40;;;;;;4935912;29;20127;-53
2021/06/16 11:35:41;;;;;;;15.93;14.43;;;30.30;45.50;;;;;;4919187;29;20067;-54
2021/06/16 11:38:17;;;;;;;15.70;14.13;;;30.30;45.40;;;;;;4936055;29;20041;-55
2021/06/16 11:40:55;;;;;;;14.93;13.63;;;30.30;45.50;;;;;;4935742;29;20039;-56
2021/06/16 11:43:46;;;;;;;15.60;14.18;;;30.30;45.40;;;;;;4935730;29;20507;-54
2021/06/16 11:46:34;;;;;;;15.27;13.77;;;30.30;45.40;;;;;;4936338;29;20050;-54
2021/06/16 11:49:20;;;;;;;14.60;13.10;;;30.30;45.50;;;;;;4935606;29;20035;-54
2021/06/16 11:51:58;;;;;;;14.85;13.45;;;30.40;45.50;;;;;;4935874;29;20055;-54
2021/06/16 11:54:27;;;;;;;15.27;13.98;;;30.40;45.40;;;;;;4935672;29;20051;-54
2021/06/16 11:56:55;;;;;;;14.77;13.48;;;30.40;45.40;;;;;;4918638;29;20380;-54
2021/06/16 11:59:36;;;;;;;14.68;13.32;;;30.40;45.50;;;;;;4935799;29;20044;-54
2021/06/16 12:02:09;;;;;;;15.02;13.60;;;30.40;45.40;;;;;;4935788;29;20494;-54
2021/06/16 12:04:45;;;;;;;14.15;12.95;;;30.40;45.40;;;;;;4935512;29;20054;-55
2021/06/16 12:07:11;;;;;;;14.23;12.98;;;30.40;45.40;;;;;;4918694;29;20059;-54
2021/06/16 12:09:49;;;;;;;14.10;12.65;;;30.50;45.40;;;;;;4918252;29;20039;-55
2021/06/16 12:12:15;;;;;;;14.88;13.55;;;30.50;45.40;;;;;;4935729;29;20123;-55
2021/06/16 12:14:41;;;;;;;14.38;12.93;;;30.50;45.40;;;;;;4935762;29;20164;-54
2021/06/16 12:17:07;;;;;;;14.52;13.23;;;30.50;45.40;;;;;;4918005;29;20039;-54
2021/06/16 12:19:35;;;;;;;13.32;12.13;;;30.50;46.00;;;;;;4935354;29;20123;-54
